This is the latest recevied weather packets stored in our database for station/object N0OQA. If no packets are shown the sender has not sent any weather packets the latest 1 day(s).
| Time | Temp. | Humidity | Pressure | Rain* | Wind** | Luminosity | Snow |
|---|---|---|---|---|---|---|---|
| 1778076458 | 2.78° C | 67% | 1018.8 hPa | 0 mm | - | - | - |
| 1778069852 | 0° C | 81% | 1017.8 hPa | 0 mm | - | - | - |
| 1778069251 | -0.56° C | 83% | 1017.8 hPa | 0 mm | - | - | - |
| 1778068951 | -0.56° C | 84% | 1017.8 hPa | 0 mm | - | - | - |
| 1778066849 | -1.11° C | 85% | 1017.4 hPa | 0 mm | - | - | - |
| 1778063846 | -1.67° C | 88% | 1017 hPa | 0 mm | - | - | - |
| 1778062945 | -1.67° C | 87% | 1016.9 hPa | 0 mm | - | - | - |
| 1778062645 | -1.11° C | 87% | 1016.9 hPa | 0 mm | - | - | - |
| 1778062044 | -1.11° C | 86% | 1016.9 hPa | 0 mm | - | - | - |
| 1778061744 | -1.11° C | 86% | 1017 hPa | 0 mm | - | - | - |
| 1778060242 | -1.11° C | 85% | 1017.1 hPa | 0 mm | - | - | - |
| 1778058741 | -1.11° C | 85% | 1016.9 hPa | 0 mm | - | - | - |
| 1778056639 | -1.11° C | 83% | 1016.6 hPa | 0 mm | - | - | - |
| 1778054537 | -1.11° C | 83% | 1016.6 hPa | 0 mm | - | - | - |
| 1778053636 | -0.56° C | 81% | 1016.4 hPa | 0 mm | - | - | - |
| 1778053336 | -0.56° C | 81% | 1016.4 hPa | 0 mm | - | - | - |
| 1778052735 | 0° C | 80% | 1016.3 hPa | 0 mm | - | - | - |
| 1778052135 | 0° C | 78% | 1016.4 hPa | 0 mm | - | - | - |
| 1778051534 | 0.56° C | 77% | 1016.4 hPa | 0 mm | - | - | - |
| 1778051234 | 0.56° C | 76% | 1016.4 hPa | 0 mm | - | - | - |
| 1778050633 | 0.56° C | 74% | 1016.4 hPa | 0 mm | - | - | - |
| 1778044027 | 2.22° C | 66% | 1016 hPa | 0 mm | - | - | - |
* Rain since midnight (hover to see other rain measurements)
** Current wind speed in m/s (hover to see current wind gust speed)